Time;durP1;ratioP1;P1;durP2;ratioP2;P2;SDS_P1;SDS_P2;PMS_P1;PMS_P2;Temp;Humidity;BMP_temperature;BMP_pressure;BME280_temperature;BME280_humidity;BME280_pressure;Samples;Min_cycle;Max_cycle;Signal;HPM_P1;HPM_P2
2022/02/10 00:06:57;;;;;;;12.10;7.40;;;9.50;95.30;;;;;;5037387;28;20167;-78
2022/02/10 00:18:01;;;;;;;11.98;6.20;;;9.60;95.40;;;;;;5054779;28;20057;-78
2022/02/10 00:20:37;;;;;;;15.30;7.22;;;9.50;95.30;;;;;;5006580;28;20123;-78
2022/02/10 00:36:24;;;;;;;15.38;9.63;;;9.50;95.30;;;;;;5022831;28;20044;-79
2022/02/10 00:39:13;;;;;;;13.75;7.97;;;9.50;95.30;;;;;;5036411;28;20040;-79
2022/02/10 00:41:38;;;;;;;12.75;7.82;;;9.50;95.30;;;;;;5022419;28;20048;-78
2022/02/10 00:44:05;;;;;;;12.32;7.10;;;9.50;95.30;;;;;;5020269;28;20455;-79
2022/02/10 00:46:33;;;;;;;12.93;7.57;;;9.50;95.30;;;;;;5020326;28;20033;-79
2022/02/10 00:49:00;;;;;;;12.52;6.50;;;9.50;95.30;;;;;;5020269;28;20099;-78
2022/02/10 00:51:27;;;;;;;14.90;9.13;;;9.50;95.20;;;;;;5020339;28;20099;-79
2022/02/10 00:53:54;;;;;;;13.45;7.90;;;9.60;95.20;;;;;;5036259;28;20048;-79
2022/02/10 00:56:21;;;;;;;12.00;7.60;;;9.60;95.20;;;;;;5036322;28;20045;-79
2022/02/10 00:59:10;;;;;;;11.40;6.50;;;9.60;95.20;;;;;;5020117;28;20048;-78
2022/02/10 01:10:27;;;;;;;10.55;6.18;;;9.60;95.20;;;;;;5036062;28;20715;-79
2022/02/10 01:24:34;;;;;;;12.68;7.18;;;9.60;95.10;;;;;;5022111;28;20103;-79
2022/02/10 01:29:48;;;;;;;11.60;6.18;;;9.60;95.10;;;;;;5021789;28;20045;-80
2022/02/10 01:32:16;;;;;;;10.75;6.15;;;9.50;95.10;;;;;;5019407;28;20103;-79
2022/02/10 01:34:48;;;;;;;10.13;5.70;;;9.50;95.00;;;;;;5019233;28;20052;-79
2022/02/10 01:37:17;;;;;;;9.50;5.40;;;9.60;95.10;;;;;;5053476;28;20447;-79
2022/02/10 01:40:03;;;;;;;9.40;5.80;;;9.60;95.00;;;;;;5019504;28;20072;-79
2022/02/10 02:04:23;;;;;;;9.85;5.82;;;9.50;94.80;;;;;;5031086;28;20045;-82
2022/02/10 02:06:52;;;;;;;8.40;5.07;;;9.50;94.90;;;;;;5056780;28;20037;-82
2022/02/10 02:09:21;;;;;;;9.25;4.97;;;9.50;94.90;;;;;;5022367;28;20555;-82
2022/02/10 02:11:52;;;;;;;6.72;3.85;;;9.50;94.90;;;;;;5018805;28;20040;-82
2022/02/10 02:14:22;;;;;;;6.47;3.60;;;9.50;94.90;;;;;;5034775;28;20037;-82
2022/02/10 02:17:00;;;;;;;7.18;3.70;;;9.50;94.90;;;;;;5034612;28;20056;-78
2022/02/10 02:19:27;;;;;;;7.70;4.10;;;9.60;94.90;;;;;;5034672;28;20053;-78
2022/02/10 02:21:59;;;;;;;6.70;3.70;;;9.50;94.90;;;;;;5034940;28;20444;-78
2022/02/10 02:24:26;;;;;;;7.25;3.70;;;9.50;94.80;;;;;;5035150;28;20045;-78
2022/02/10 02:27:03;;;;;;;7.55;3.63;;;9.50;94.90;;;;;;5034784;28;20485;-82
2022/02/10 02:29:42;;;;;;;6.15;3.85;;;9.50;94.80;;;;;;5052593;28;20045;-82
2022/02/10 02:32:21;;;;;;;7.05;4.22;;;9.50;94.80;;;;;;5034361;28;20048;-82
2022/02/10 03:05:02;;;;;;;5.97;3.40;;;9.50;94.70;;;;;;5041089;28;20048;-78
2022/02/10 03:07:38;;;;;;;9.40;3.85;;;9.50;94.70;;;;;;5040894;28;20052;-78
2022/02/10 03:12:37;;;;;;;6.95;3.78;;;9.50;95.00;;;;;;5037643;28;20045;-78
2022/02/10 03:15:16;;;;;;;6.38;4.05;;;9.50;94.70;;;;;;5021961;28;20060;-78
2022/02/10 03:17:54;;;;;;;7.05;3.78;;;9.50;94.70;;;;;;5021660;28;20048;-78
2022/02/10 04:04:31;;;;;;;9.00;4.50;;;9.40;94.50;;;;;;5021997;28;20398;-81
2022/02/10 04:09:53;;;;;;;7.15;4.70;;;9.40;94.60;;;;;;5020659;28;20048;-82
2022/02/10 04:15:13;;;;;;;9.00;5.22;;;9.40;94.60;;;;;;5022342;28;20497;-82
2022/02/10 04:53:11;;;;;;;13.48;8.70;;;9.30;94.50;;;;;;5014941;28;20068;-81
2022/02/10 05:04:28;;;;;;;11.57;7.15;;;9.30;94.40;;;;;;5022495;28;20124;-78
2022/02/10 05:15:24;;;;;;;11.45;7.20;;;9.30;94.40;;;;;;5053421;28;20611;-77
2022/02/10 05:17:51;;;;;;;11.07;6.88;;;9.30;94.40;;;;;;5022084;28;20048;-77
2022/02/10 05:33:39;;;;;;;15.88;9.93;;;9.20;94.30;;;;;;5038515;28;20406;-77
2022/02/10 05:36:10;;;;;;;20.00;11.15;;;9.20;94.30;;;;;;5020239;28;20052;-78
2022/02/10 05:38:45;;;;;;;17.63;11.23;;;9.20;94.20;;;;;;5019582;28;20049;-77
2022/02/10 05:44:23;;;;;;;14.75;8.93;;;9.20;94.30;;;;;;5035427;28;20094;-78
2022/02/10 05:47:06;;;;;;;21.05;14.25;;;9.20;94.30;;;;;;5038105;28;20076;-78
2022/02/10 06:52:20;;;;;;;21.85;12.68;;;8.90;94.50;;;;;;4974781;28;20064;-81
2022/02/10 06:55:11;;;;;;;18.23;11.05;;;8.90;94.50;;;;;;5006253;28;20060;-77
2022/02/10 06:58:30;;;;;;;18.98;11.75;;;8.90;94.40;;;;;;5017890;28;20053;-77
2022/02/10 07:11:44;;;;;;;24.42;14.18;;;8.60;94.70;;;;;;5037418;28;20053;-78
2022/02/10 07:57:55;;;;;;;3.53;1.42;;;8.10;95.60;;;;;;5040450;28;20060;-79
2022/02/10 08:00:56;;;;;;;2.83;1.10;;;8.10;95.60;;;;;;5012762;28;20473;-80
2022/02/10 09:04:32;;;;;;;0.95;0.10;;;7.70;95.80;;;;;;5005769;28;20049;-80
2022/02/10 09:09:57;;;;;;;0.68;0.10;;;7.70;95.80;;;;;;5035976;28;20452;-80
2022/02/10 09:55:29;;;;;;;1.58;0.10;;;8.00;95.70;;;;;;5019057;28;20049;-78
2022/02/10 10:00:34;;;;;;;1.20;0.17;;;7.90;95.50;;;;;;5035418;28;20042;-78
2022/02/10 10:03:13;;;;;;;2.95;0.20;;;8.00;95.50;;;;;;5037257;28;20076;-80
2022/02/10 10:06:26;;;;;;;0.73;0.30;;;8.00;95.50;;;;;;5034928;28;20049;-78
2022/02/10 10:09:05;;;;;;;0.88;0.20;;;8.00;95.30;;;;;;5052523;28;20503;-81
2022/02/10 10:17:08;;;;;;;1.60;0.20;;;8.00;95.30;;;;;;5052856;28;20068;-79
2022/02/10 10:51:28;;;;;;;0.52;0.20;;;8.70;94.50;;;;;;5034666;28;20091;-79
2022/02/10 10:54:08;;;;;;;1.48;0.35;;;8.80;94.40;;;;;;5023986;28;20108;-79
2022/02/10 10:56:40;;;;;;;2.15;0.50;;;8.90;94.40;;;;;;5023466;28;20040;-79
2022/02/10 11:36:36;;;;;;;5.13;1.23;;;8.70;94.00;;;;;;4998305;28;20074;-81
2022/02/10 11:39:55;;;;;;;6.10;1.70;;;8.80;93.90;;;;;;4984819;28;20045;-79
2022/02/10 11:42:25;;;;;;;2.67;1.60;;;8.80;93.80;;;;;;5007774;28;20049;-79
2022/02/10 12:39:45;;;;;;;5.97;2.88;;;9.50;92.50;;;;;;5034433;28;20073;-81
2022/02/10 13:35:55;;;;;;;3.15;0.52;;;9.30;91.60;;;;;;5031997;28;20067;-82
2022/02/10 14:12:51;;;;;;;2.60;0.50;;;9.00;90.90;;;;;;5021811;28;20053;-83
2022/02/10 14:15:34;;;;;;;2.30;0.57;;;9.00;90.90;;;;;;5005783;28;20441;-83
2022/02/10 14:18:10;;;;;;;2.15;0.40;;;9.10;90.90;;;;;;5005893;28;20041;-83
2022/02/10 14:20:55;;;;;;;5.07;0.82;;;9.10;90.80;;;;;;5035251;28;20060;-84
2022/02/10 14:28:27;;;;;;;2.38;0.50;;;9.10;90.60;;;;;;5003316;28;20444;-82
2022/02/10 14:30:55;;;;;;;3.70;0.43;;;9.00;90.50;;;;;;5035040;28;20043;-83
2022/02/10 14:33:29;;;;;;;1.80;0.30;;;9.00;90.60;;;;;;4986372;28;20493;-84
2022/02/10 14:36:07;;;;;;;2.22;0.40;;;9.00;90.70;;;;;;5019382;28;20044;-83
2022/02/10 15:12:35;;;;;;;2.67;0.60;;;9.00;89.40;;;;;;5007274;28;20157;-84
2022/02/10 15:32:26;;;;;;;2.70;0.60;;;9.00;88.10;;;;;;5032570;28;20036;-79
2022/02/10 15:46:01;;;;;;;3.83;0.60;;;8.90;88.10;;;;;;5022475;28;20056;-79
2022/02/10 16:18:42;;;;;;;2.33;0.60;;;8.30;88.70;;;;;;5034163;28;20045;-82
2022/02/10 16:21:10;;;;;;;4.72;0.50;;;8.30;88.40;;;;;;5019726;28;20041;-84
2022/02/10 16:23:38;;;;;;;2.45;0.43;;;8.30;88.60;;;;;;5033820;28;20057;-84
2022/02/10 16:26:11;;;;;;;3.25;0.70;;;8.20;88.70;;;;;;5017506;28;20042;-83
2022/02/10 16:28:41;;;;;;;3.13;0.60;;;8.20;88.50;;;;;;5017924;28;20049;-81
2022/02/10 16:31:13;;;;;;;3.95;0.55;;;8.20;88.30;;;;;;5034782;28;20070;-86
2022/02/10 16:33:46;;;;;;;2.08;0.60;;;8.20;88.40;;;;;;5021459;28;20067;-84
2022/02/10 16:36:17;;;;;;;3.38;0.45;;;8.20;88.60;;;;;;5020483;28;20059;-84
2022/02/10 16:38:49;;;;;;;3.10;0.40;;;8.10;88.40;;;;;;5036447;28;20089;-83
2022/02/10 16:41:21;;;;;;;1.42;0.60;;;8.20;88.10;;;;;;5007028;28;20048;-82
2022/02/10 16:43:52;;;;;;;2.42;0.70;;;8.10;88.00;;;;;;5006220;28;20444;-81
2022/02/10 16:46:22;;;;;;;3.50;0.70;;;8.10;88.10;;;;;;5021471;28;20682;-82
2022/02/10 16:48:55;;;;;;;2.78;1.15;;;8.10;88.10;;;;;;5021935;28;20124;-82
2022/02/10 16:51:27;;;;;;;2.92;0.47;;;8.10;88.00;;;;;;5037039;28;20063;-83
2022/02/10 16:54:04;;;;;;;2.85;0.52;;;8.00;86.80;;;;;;5036907;28;20049;-82
2022/02/10 16:56:49;;;;;;;2.00;0.40;;;8.00;86.80;;;;;;5006080;28;20049;-84
2022/02/10 17:05:33;;;;;;;3.17;0.45;;;7.90;85.80;;;;;;5036079;28;20041;-83
2022/02/10 17:33:07;;;;;;;1.77;0.50;;;7.70;86.30;;;;;;5037892;28;20057;-80
2022/02/10 17:51:25;;;;;;;0.82;0.30;;;7.70;86.90;;;;;;5038225;28;20124;-84
2022/02/10 17:54:28;;;;;;;1.23;0.45;;;7.70;87.10;;;;;;5015985;28;20037;-87
2022/02/10 17:56:56;;;;;;;1.70;0.30;;;7.70;87.20;;;;;;4999731;28;20041;-85
2022/02/10 17:59:24;;;;;;;2.78;0.35;;;7.60;87.30;;;;;;4999379;28;20050;-85
2022/02/10 18:01:52;;;;;;;0.98;0.52;;;7.60;87.40;;;;;;4999465;28;20050;-80
2022/02/10 18:04:22;;;;;;;1.35;0.30;;;7.60;87.50;;;;;;5015718;28;20034;-85
2022/02/10 18:06:54;;;;;;;1.23;0.30;;;7.60;87.60;;;;;;5000400;28;20045;-87
2022/02/10 18:09:45;;;;;;;0.80;0.20;;;7.60;87.70;;;;;;4999685;28;20042;-86
2022/02/10 18:15:46;;;;;;;1.10;0.13;;;7.60;88.00;;;;;;5016378;28;20482;-90
2022/02/10 18:18:11;;;;;;;1.90;0.50;;;7.60;88.10;;;;;;5013786;28;20099;-85
2022/02/10 18:20:42;;;;;;;1.63;0.43;;;7.60;88.20;;;;;;5016543;28;20469;-81
2022/02/10 18:23:21;;;;;;;1.35;0.38;;;7.60;88.30;;;;;;5014144;28;20056;-81
2022/02/10 18:25:58;;;;;;;4.05;0.77;;;7.60;88.20;;;;;;5015864;28;20062;-81
2022/02/10 18:29:31;;;;;;;3.20;0.57;;;7.50;88.20;;;;;;5021377;28;20073;-81
2022/02/10 18:54:25;;;;;;;1.80;0.60;;;7.40;88.50;;;;;;5019686;28;20049;-80
2022/02/10 19:06:57;;;;;;;0.85;0.30;;;7.20;88.90;;;;;;5011809;28;20049;-80
2022/02/10 19:09:30;;;;;;;1.75;0.30;;;7.20;88.90;;;;;;5018571;28;20045;-80
2022/02/10 19:12:04;;;;;;;1.17;0.30;;;7.20;89.10;;;;;;5032450;28;20073;-80
2022/02/10 19:14:36;;;;;;;1.88;0.30;;;7.20;89.20;;;;;;5037088;28;20157;-84
2022/02/10 19:17:04;;;;;;;1.90;0.47;;;7.20;89.10;;;;;;5040917;28;20107;-80
2022/02/10 19:19:34;;;;;;;2.38;0.50;;;7.20;89.20;;;;;;5043646;28;20132;-87
2022/02/10 19:22:08;;;;;;;2.70;0.60;;;7.10;89.10;;;;;;5012823;28;20096;-80
2022/02/10 19:24:36;;;;;;;1.30;0.30;;;7.10;89.00;;;;;;5038213;28;20068;-84
2022/02/10 19:27:03;;;;;;;2.80;0.40;;;7.10;89.10;;;;;;5001717;28;20041;-84
2022/02/10 19:29:31;;;;;;;1.33;0.50;;;7.10;89.00;;;;;;5018746;28;20037;-86
2022/02/10 19:31:59;;;;;;;2.55;0.80;;;7.10;89.00;;;;;;5001819;28;20057;-84
2022/02/10 19:34:32;;;;;;;2.28;0.77;;;7.10;89.00;;;;;;5035386;28;20053;-81
2022/02/10 19:37:14;;;;;;;1.65;0.52;;;7.10;89.10;;;;;;5010469;28;20412;-86
2022/02/10 19:39:43;;;;;;;2.63;0.40;;;7.00;89.10;;;;;;5006254;28;20132;-83
2022/02/10 19:42:11;;;;;;;2.90;0.50;;;7.00;89.20;;;;;;5038062;28;20491;-85
2022/02/10 19:44:38;;;;;;;1.67;0.40;;;7.00;89.30;;;;;;5021613;28;20120;-84
2022/02/10 19:47:05;;;;;;;3.40;0.60;;;7.00;89.40;;;;;;5021542;28;20068;-83
2022/02/10 19:49:39;;;;;;;4.20;0.65;;;7.00;89.20;;;;;;5021587;28;20136;-88
2022/02/10 19:52:07;;;;;;;3.72;0.73;;;7.00;89.10;;;;;;5038391;28;20412;-82
2022/02/10 19:54:45;;;;;;;1.45;0.50;;;6.90;89.10;;;;;;5038316;28;20041;-93
2022/02/10 19:57:12;;;;;;;3.63;0.60;;;6.90;89.20;;;;;;5006694;28;20056;-89
2022/02/10 19:59:39;;;;;;;2.00;0.80;;;6.90;89.10;;;;;;5006613;28;20139;-91
2022/02/10 20:02:09;;;;;;;1.75;0.60;;;6.90;89.20;;;;;;5022009;28;20045;-82
2022/02/10 20:04:42;;;;;;;1.52;0.50;;;6.80;89.20;;;;;;5022903;28;20049;-83
2022/02/10 20:07:12;;;;;;;3.08;0.60;;;6.90;89.40;;;;;;5004980;28;20061;-82
2022/02/10 20:09:40;;;;;;;3.05;0.70;;;6.80;89.30;;;;;;5005305;28;20045;-82
2022/02/10 20:12:08;;;;;;;3.70;0.60;;;6.80;89.30;;;;;;5020925;28;20080;-82
2022/02/10 20:14:35;;;;;;;4.15;0.50;;;6.80;89.40;;;;;;5020957;28;20067;-83
2022/02/10 20:17:02;;;;;;;2.80;0.63;;;6.80;89.50;;;;;;5020668;28;20048;-84
2022/02/10 20:19:32;;;;;;;4.63;0.80;;;6.80;89.50;;;;;;5036855;28;20049;-83
2022/02/10 20:22:03;;;;;;;2.90;0.40;;;6.80;89.50;;;;;;5037553;28;20072;-84
2022/02/10 20:24:30;;;;;;;1.83;0.80;;;6.70;89.50;;;;;;5020520;28;20041;-82
2022/02/10 20:26:58;;;;;;;4.05;0.85;;;6.70;89.50;;;;;;5036864;28;20048;-84
2022/02/10 20:29:25;;;;;;;5.38;0.85;;;6.70;89.50;;;;;;5036882;28;20044;-84
2022/02/10 20:31:53;;;;;;;3.30;1.15;;;6.70;89.60;;;;;;5020582;28;20072;-84
2022/02/10 20:34:20;;;;;;;2.75;0.88;;;6.60;89.60;;;;;;5036745;28;20045;-83
2022/02/10 20:36:47;;;;;;;4.57;1.10;;;6.60;89.70;;;;;;5020529;28;20159;-83
2022/02/10 20:39:25;;;;;;;2.95;0.90;;;6.60;89.70;;;;;;5004763;28;20091;-83
2022/02/10 20:42:00;;;;;;;3.00;0.90;;;6.60;89.80;;;;;;5020105;28;20041;-83
2022/02/10 20:44:27;;;;;;;4.28;0.98;;;6.60;89.80;;;;;;5036713;28;20136;-82
2022/02/10 20:46:55;;;;;;;2.58;0.95;;;6.50;89.90;;;;;;5035130;28;20047;-84
2022/02/10 20:49:27;;;;;;;4.63;1.10;;;6.50;90.00;;;;;;5036260;28;20462;-84
2022/02/10 20:51:55;;;;;;;2.20;0.77;;;6.50;90.00;;;;;;5002088;28;20206;-83
2022/02/10 20:54:25;;;;;;;3.45;0.82;;;6.50;90.10;;;;;;5000375;28;20050;-83
2022/02/10 20:56:53;;;;;;;3.50;0.80;;;6.50;90.10;;;;;;5017207;28;20447;-82
2022/02/10 20:59:38;;;;;;;3.47;0.77;;;6.50;90.40;;;;;;5000440;28;20060;-84
2022/02/10 21:02:19;;;;;;;3.65;0.77;;;6.50;90.10;;;;;;5002513;28;20045;-83
2022/02/10 21:04:54;;;;;;;2.33;0.95;;;6.50;90.10;;;;;;5000483;28;20095;-82
2022/02/10 21:08:01;;;;;;;4.05;0.80;;;6.40;90.10;;;;;;5016336;28;20041;-82
2022/02/10 21:10:16;;;;;;;3.42;0.77;;;6.40;90.10;;;;;;5002754;28;20049;-80
2022/02/10 21:12:45;;;;;;;4.10;1.00;;;6.40;90.20;;;;;;5017142;28;20121;-84
2022/02/10 21:15:18;;;;;;;4.20;1.05;;;6.40;90.20;;;;;;5033821;28;20042;-88
2022/02/10 21:17:48;;;;;;;3.25;1.08;;;6.30;90.10;;;;;;5000832;28;20045;-80
2022/02/10 21:20:16;;;;;;;4.88;1.50;;;6.30;90.10;;;;;;5000319;28;20057;-85
2022/02/10 21:22:50;;;;;;;3.95;1.13;;;6.30;90.20;;;;;;4983464;28;20068;-85
2022/02/10 21:25:23;;;;;;;4.68;1.38;;;6.20;90.20;;;;;;4995066;28;20485;-85
2022/02/10 21:27:53;;;;;;;5.03;1.70;;;6.20;90.20;;;;;;4996023;28;20029;-85
2022/02/10 21:30:27;;;;;;;3.17;1.30;;;6.20;90.20;;;;;;5014192;28;20053;-85
2022/02/10 21:32:57;;;;;;;2.92;0.93;;;6.20;90.20;;;;;;5036549;28;20568;-89
2022/02/10 21:35:31;;;;;;;2.42;0.60;;;6.20;90.30;;;;;;5004976;28;20056;-88
2022/02/10 21:38:14;;;;;;;3.40;0.90;;;6.20;90.30;;;;;;5021419;28;20140;-85
2022/02/10 22:10:27;;;;;;;2.53;0.98;;;6.10;90.50;;;;;;5035124;28;20045;-81
2022/02/10 22:18:37;;;;;;;3.30;1.35;;;6.00;90.70;;;;;;5005903;28;20050;-83
2022/02/10 22:21:06;;;;;;;2.95;1.33;;;5.90;90.70;;;;;;5000603;28;20045;-83
2022/02/10 22:23:36;;;;;;;3.58;0.85;;;5.90;90.80;;;;;;5033028;28;20117;-81
2022/02/10 22:26:07;;;;;;;2.95;1.65;;;5.90;90.80;;;;;;4998863;28;20099;-82
2022/02/10 22:28:46;;;;;;;3.15;1.00;;;5.80;90.90;;;;;;4999222;28;20045;-82
2022/02/10 22:31:27;;;;;;;3.70;0.88;;;5.80;90.90;;;;;;5014856;28;20525;-83
2022/02/10 22:36:37;;;;;;;5.75;1.55;;;5.70;91.00;;;;;;5014771;28;20447;-82
2022/02/10 22:39:04;;;;;;;4.07;1.40;;;5.70;91.10;;;;;;4983097;28;20478;-82
2022/02/10 22:41:32;;;;;;;5.00;1.63;;;5.60;91.10;;;;;;5014901;28;20049;-82
2022/02/10 22:44:06;;;;;;;4.28;1.50;;;5.50;91.10;;;;;;5014914;28;20038;-82
2022/02/10 22:46:34;;;;;;;3.90;1.23;;;5.50;91.20;;;;;;5014764;28;20038;-82
2022/02/10 22:49:01;;;;;;;4.90;1.27;;;5.50;91.30;;;;;;5014798;28;20073;-82
2022/02/10 22:51:32;;;;;;;2.67;1.02;;;5.50;91.40;;;;;;4998382;28;20508;-82
2022/02/10 22:54:03;;;;;;;4.50;1.17;;;5.40;91.40;;;;;;5014281;28;20057;-82
2022/02/10 22:56:31;;;;;;;3.05;0.90;;;5.40;91.40;;;;;;5014643;28;20045;-78
2022/02/10 22:59:04;;;;;;;3.95;1.02;;;5.30;91.40;;;;;;4998971;28;20049;-78
2022/02/10 23:01:36;;;;;;;3.92;1.00;;;5.30;91.50;;;;;;5014981;28;20051;-78
2022/02/10 23:04:05;;;;;;;2.92;1.27;;;5.30;91.50;;;;;;4998403;28;20072;-78
2022/02/10 23:06:36;;;;;;;4.80;1.10;;;5.30;91.60;;;;;;4998989;28;20050;-78
2022/02/10 23:11:57;;;;;;;2.97;1.00;;;5.20;91.60;;;;;;5018538;28;20502;-78
2022/02/10 23:14:25;;;;;;;4.55;0.85;;;5.20;91.70;;;;;;5002294;28;20060;-78
2022/02/10 23:16:52;;;;;;;4.60;1.27;;;5.20;91.70;;;;;;5018600;28;20473;-78
2022/02/10 23:19:21;;;;;;;2.00;0.70;;;5.10;91.70;;;;;;5002157;28;20045;-78
2022/02/10 23:21:50;;;;;;;4.65;1.10;;;5.10;91.80;;;;;;5002334;28;20033;-77
2022/02/10 23:24:18;;;;;;;2.53;0.80;;;5.10;91.80;;;;;;5002622;28;20096;-78
2022/02/10 23:26:46;;;;;;;6.05;1.40;;;5.10;91.80;;;;;;5002238;28;20043;-78
2022/02/10 23:29:13;;;;;;;3.10;0.90;;;5.10;91.90;;;;;;5002321;28;20045;-78
2022/02/10 23:31:43;;;;;;;3.88;1.20;;;5.10;91.90;;;;;;5002038;28;20053;-78
2022/02/10 23:34:10;;;;;;;3.65;0.90;;;5.10;92.00;;;;;;5017354;28;20124;-78
2022/02/10 23:41:54;;;;;;;6.32;1.83;;;5.00;92.00;;;;;;5018029;28;20053;-78
2022/02/10 23:44:29;;;;;;;3.45;0.88;;;5.00;92.00;;;;;;5017976;28;20046;-78
2022/02/10 23:46:57;;;;;;;4.15;1.00;;;5.00;92.00;;;;;;5001758;28;20043;-79
2022/02/10 23:49:26;;;;;;;3.75;0.88;;;5.00;92.10;;;;;;5018550;28;20060;-78
2022/02/10 23:52:06;;;;;;;6.10;1.02;;;4.90;92.10;;;;;;5018164;28;20401;-79
2022/02/10 23:54:39;;;;;;;4.93;1.27;;;4.90;92.10;;;;;;5017855;28;20148;-78
